Time;durP1;ratioP1;P1;durP2;ratioP2;P2;SDS_P1;SDS_P2;PMS_P1;PMS_P2;Temp;Humidity;BMP_temperature;BMP_pressure;BME280_temperature;BME280_humidity;BME280_pressure;Samples;Min_cycle;Max_cycle;Signal;HPM_P1;HPM_P2
2022/04/10 00:00:36;;;;;;;5.5;2.8;;;;;;;2.21;100;95222.75;;;;
2022/04/10 00:01:36;;;;;;;5.5;2.8;;;;;;;2.21;100;95222.75;;;;
2022/04/10 00:02:37;;;;;;;5.5;2.8;;;;;;;2.21;100;95222.75;;;;
2022/04/10 00:03:38;;;;;;;5.5;2.8;;;;;;;2.21;100;95222.75;;;;
2022/04/10 00:04:38;;;;;;;5.5;2.8;;;;;;;2.21;100;95222.75;;;;
2022/04/10 00:05:39;;;;;;;5.5;2.8;;;;;;;2.21;100;95222.75;;;;
2022/04/10 00:06:39;;;;;;;5.5;2.8;;;;;;;2.21;100;95222.75;;;;
2022/04/10 00:07:39;;;;;;;3.3;2.5;;;;;;;1.96;100;95218.75;;;;
2022/04/10 00:08:40;;;;;;;3.3;2.5;;;;;;;1.96;100;95218.75;;;;
2022/04/10 00:09:40;;;;;;;3.3;2.5;;;;;;;1.96;100;95218.75;;;;
2022/04/10 00:10:41;;;;;;;3.3;2.5;;;;;;;1.96;100;95218.75;;;;
2022/04/10 00:11:42;;;;;;;3.3;2.5;;;;;;;1.96;100;95218.75;;;;
2022/04/10 00:12:42;;;;;;;3.3;2.5;;;;;;;1.96;100;95218.75;;;;
2022/04/10 00:13:42;;;;;;;3.3;2.5;;;;;;;1.96;100;95218.75;;;;
2022/04/10 00:14:45;;;;;;;3.3;2.5;;;;;;;1.96;100;95218.75;;;;
2022/04/10 00:15:45;;;;;;;3.3;2.5;;;;;;;1.96;100;95218.75;;;;
2022/04/10 00:16:46;;;;;;;3.3;2.5;;;;;;;1.96;100;95218.75;;;;
2022/04/10 00:17:46;;;;;;;3.3;2.5;;;;;;;1.96;100;95218.75;;;;
2022/04/10 00:18:47;;;;;;;5.300001;2.8;;;;;;;1.82;100;95216.51;;;;
2022/04/10 00:19:48;;;;;;;5.300001;2.8;;;;;;;1.82;100;95216.51;;;;
2022/04/10 00:20:48;;;;;;;5.300001;2.8;;;;;;;1.82;100;95216.51;;;;
2022/04/10 00:21:49;;;;;;;5.300001;2.8;;;;;;;1.82;100;95216.51;;;;
2022/04/10 00:22:49;;;;;;;5.300001;2.8;;;;;;;1.82;100;95216.51;;;;
2022/04/10 00:23:50;;;;;;;5.300001;2.8;;;;;;;1.82;100;95216.51;;;;
2022/04/10 00:24:51;;;;;;;5.300001;2.8;;;;;;;1.82;100;95216.51;;;;
2022/04/10 00:25:51;;;;;;;5.300001;2.8;;;;;;;1.82;100;95216.51;;;;
2022/04/10 00:26:52;;;;;;;5.300001;2.8;;;;;;;1.82;100;95216.51;;;;
2022/04/10 00:27:52;;;;;;;5.300001;2.8;;;;;;;1.82;100;95216.51;;;;
2022/04/10 00:28:53;;;;;;;7.1;3.05;;;;;;;1.63;100;95218.79;;;;
2022/04/10 00:29:54;;;;;;;7.1;3.05;;;;;;;1.63;100;95218.79;;;;
2022/04/10 00:30:54;;;;;;;7.1;3.05;;;;;;;1.63;100;95218.79;;;;
2022/04/10 00:31:54;;;;;;;7.1;3.05;;;;;;;1.63;100;95218.79;;;;
2022/04/10 00:32:55;;;;;;;7.1;3.05;;;;;;;1.63;100;95218.79;;;;
2022/04/10 00:33:55;;;;;;;7.1;3.05;;;;;;;1.63;100;95218.79;;;;
2022/04/10 00:34:56;;;;;;;7.1;3.05;;;;;;;1.63;100;95218.79;;;;
2022/04/10 00:35:56;;;;;;;7.1;3.05;;;;;;;1.63;100;95218.79;;;;
2022/04/10 00:36:57;;;;;;;7.1;3.05;;;;;;;1.63;100;95218.79;;;;
2022/04/10 00:37:57;;;;;;;7.1;3.05;;;;;;;1.63;100;95218.79;;;;
2022/04/10 00:38:58;;;;;;;7.1;3.05;;;;;;;1.63;100;95218.79;;;;
2022/04/10 00:39:59;;;;;;;5.45;3.15;;;;;;;1.47;100;95222.88;;;;
2022/04/10 00:40:59;;;;;;;5.45;3.15;;;;;;;1.47;100;95222.88;;;;
2022/04/10 00:42:00;;;;;;;5.45;3.15;;;;;;;1.47;100;95222.88;;;;
2022/04/10 00:43:00;;;;;;;5.45;3.15;;;;;;;1.47;100;95222.88;;;;
2022/04/10 00:44:01;;;;;;;5.45;3.15;;;;;;;1.47;100;95222.88;;;;
2022/04/10 00:45:05;;;;;;;5.45;3.15;;;;;;;1.47;100;95222.88;;;;
2022/04/10 00:46:07;;;;;;;5.45;3.15;;;;;;;1.47;100;95222.88;;;;
2022/04/10 00:47:10;;;;;;;5.45;3.15;;;;;;;1.47;100;95222.88;;;;
2022/04/10 00:48:10;;;;;;;5.45;3.15;;;;;;;1.47;100;95222.88;;;;
2022/04/10 00:49:11;;;;;;;5.45;3.15;;;;;;;1.47;100;95222.88;;;;
2022/04/10 00:50:11;;;;;;;3.65;3.25;;;;;;;1.36;100;95224.22;;;;
2022/04/10 00:51:46;;;;;;;3.65;3.25;;;;;;;1.36;100;95224.22;;;;
2022/04/10 00:52:49;;;;;;;3.65;3.25;;;;;;;1.36;100;95224.22;;;;
2022/04/10 00:53:50;;;;;;;3.65;3.25;;;;;;;1.36;100;95224.22;;;;
2022/04/10 00:54:50;;;;;;;3.65;3.25;;;;;;;1.36;100;95224.22;;;;
2022/04/10 00:55:51;;;;;;;3.65;3.25;;;;;;;1.36;100;95224.22;;;;
2022/04/10 00:56:52;;;;;;;3.65;3.25;;;;;;;1.36;100;95224.22;;;;
2022/04/10 00:57:53;;;;;;;3.65;3.25;;;;;;;1.36;100;95224.22;;;;
2022/04/10 00:58:54;;;;;;;3.65;3.25;;;;;;;1.36;100;95224.22;;;;
2022/04/10 00:59:55;;;;;;;3.65;3.25;;;;;;;1.36;100;95224.22;;;;
2022/04/10 01:00:55;;;;;;;3.95;3.25;;;;;;;1.33;100;95225.9;;;;
2022/04/10 01:01:56;;;;;;;3.95;3.25;;;;;;;1.33;100;95225.9;;;;
2022/04/10 01:02:57;;;;;;;3.95;3.25;;;;;;;1.33;100;95225.9;;;;
2022/04/10 01:03:57;;;;;;;3.95;3.25;;;;;;;1.33;100;95225.9;;;;
2022/04/10 01:04:58;;;;;;;3.95;3.25;;;;;;;1.33;100;95225.9;;;;
2022/04/10 01:05:58;;;;;;;3.95;3.25;;;;;;;1.33;100;95225.9;;;;
2022/04/10 01:06:59;;;;;;;3.95;3.25;;;;;;;1.33;100;95225.9;;;;
2022/04/10 01:08:00;;;;;;;3.95;3.25;;;;;;;1.33;100;95225.9;;;;
2022/04/10 01:09:01;;;;;;;3.95;3.25;;;;;;;1.33;100;95225.9;;;;
2022/04/10 01:10:02;;;;;;;3.95;3.25;;;;;;;1.33;100;95225.9;;;;
2022/04/10 01:11:05;;;;;;;3.95;3.25;;;;;;;1.33;100;95225.9;;;;
2022/04/10 01:12:06;;;;;;;5.200001;3.25;;;;;;;1.3;100;95224.1;;;;
2022/04/10 01:13:08;;;;;;;5.200001;3.25;;;;;;;1.3;100;95224.1;;;;
2022/04/10 01:14:09;;;;;;;5.200001;3.25;;;;;;;1.3;100;95224.1;;;;
2022/04/10 01:15:09;;;;;;;5.200001;3.25;;;;;;;1.3;100;95224.1;;;;
2022/04/10 01:16:10;;;;;;;5.200001;3.25;;;;;;;1.3;100;95224.1;;;;
2022/04/10 01:17:11;;;;;;;5.200001;3.25;;;;;;;1.3;100;95224.1;;;;
2022/04/10 01:18:12;;;;;;;5.200001;3.25;;;;;;;1.3;100;95224.1;;;;
2022/04/10 01:19:12;;;;;;;5.200001;3.25;;;;;;;1.3;100;95224.1;;;;
2022/04/10 01:20:16;;;;;;;5.200001;3.25;;;;;;;1.3;100;95224.1;;;;
2022/04/10 01:21:17;;;;;;;5.200001;3.25;;;;;;;1.3;100;95224.1;;;;
2022/04/10 01:22:22;;;;;;;5.400001;3.05;;;;;;;1.21;100;95229.17;;;;
2022/04/10 01:23:30;;;;;;;5.400001;3.05;;;;;;;1.21;100;95229.17;;;;
2022/04/10 01:24:31;;;;;;;5.400001;3.05;;;;;;;1.21;100;95229.17;;;;
2022/04/10 01:25:34;;;;;;;5.400001;3.05;;;;;;;1.21;100;95229.17;;;;
2022/04/10 01:26:34;;;;;;;5.400001;3.05;;;;;;;1.21;100;95229.17;;;;
2022/04/10 01:27:36;;;;;;;5.400001;3.05;;;;;;;1.21;100;95229.17;;;;
2022/04/10 01:28:37;;;;;;;5.400001;3.05;;;;;;;1.21;100;95229.17;;;;
2022/04/10 01:29:55;;;;;;;5.400001;3.05;;;;;;;1.21;100;95229.17;;;;
2022/04/10 01:30:55;;;;;;;5.400001;3.05;;;;;;;1.21;100;95229.17;;;;
2022/04/10 01:31:55;;;;;;;5.400001;3.05;;;;;;;1.21;100;95229.17;;;;
2022/04/10 01:32:57;;;;;;;5.75;3.25;;;;;;;1.2;100;95235.44;;;;
2022/04/10 01:33:58;;;;;;;5.75;3.25;;;;;;;1.2;100;95235.44;;;;
2022/04/10 01:35:01;;;;;;;5.75;3.25;;;;;;;1.2;100;95235.44;;;;
2022/04/10 01:36:03;;;;;;;5.75;3.25;;;;;;;1.2;100;95235.44;;;;
2022/04/10 01:37:04;;;;;;;5.75;3.25;;;;;;;1.2;100;95235.44;;;;
2022/04/10 01:38:07;;;;;;;5.75;3.25;;;;;;;1.2;100;95235.44;;;;
2022/04/10 01:39:11;;;;;;;5.75;3.25;;;;;;;1.2;100;95235.44;;;;
2022/04/10 01:40:13;;;;;;;5.75;3.25;;;;;;;1.2;100;95235.44;;;;
2022/04/10 01:41:13;;;;;;;5.75;3.25;;;;;;;1.2;100;95235.44;;;;
2022/04/10 01:42:14;;;;;;;5.75;3.25;;;;;;;1.2;100;95235.44;;;;
2022/04/10 01:43:15;;;;;;;5.75;3.25;;;;;;;1.2;100;95235.44;;;;
2022/04/10 01:44:16;;;;;;;5.400001;3;;;;;;;1.28;100;95239.34;;;;
2022/04/10 01:45:16;;;;;;;5.400001;3;;;;;;;1.28;100;95239.34;;;;
2022/04/10 01:46:17;;;;;;;5.400001;3;;;;;;;1.28;100;95239.34;;;;
2022/04/10 01:47:19;;;;;;;5.400001;3;;;;;;;1.28;100;95239.34;;;;
2022/04/10 01:48:19;;;;;;;5.400001;3;;;;;;;1.28;100;95239.34;;;;
2022/04/10 01:49:20;;;;;;;5.400001;3;;;;;;;1.28;100;95239.34;;;;
2022/04/10 01:50:20;;;;;;;5.400001;3;;;;;;;1.28;100;95239.34;;;;
2022/04/10 01:51:22;;;;;;;5.400001;3;;;;;;;1.28;100;95239.34;;;;
2022/04/10 01:52:24;;;;;;;5.400001;3;;;;;;;1.28;100;95239.34;;;;
2022/04/10 01:53:25;;;;;;;5.400001;3;;;;;;;1.28;100;95239.34;;;;
2022/04/10 01:54:26;;;;;;;6.6;3.65;;;;;;;1.32;100;95233.56;;;;
2022/04/10 01:55:26;;;;;;;6.6;3.65;;;;;;;1.32;100;95233.56;;;;
2022/04/10 01:56:27;;;;;;;6.6;3.65;;;;;;;1.32;100;95233.56;;;;
2022/04/10 01:57:27;;;;;;;6.6;3.65;;;;;;;1.32;100;95233.56;;;;
2022/04/10 01:58:28;;;;;;;6.6;3.65;;;;;;;1.32;100;95233.56;;;;
2022/04/10 01:59:29;;;;;;;6.6;3.65;;;;;;;1.32;100;95233.56;;;;
2022/04/10 02:00:29;;;;;;;6.6;3.65;;;;;;;1.32;100;95233.56;;;;
2022/04/10 02:01:30;;;;;;;6.6;3.65;;;;;;;1.32;100;95233.56;;;;
2022/04/10 02:02:30;;;;;;;6.6;3.65;;;;;;;1.32;100;95233.56;;;;
2022/04/10 02:03:31;;;;;;;6.6;3.65;;;;;;;1.32;100;95233.56;;;;
2022/04/10 02:04:31;;;;;;;6.6;3.65;;;;;;;1.32;100;95233.56;;;;
2022/04/10 02:05:32;;;;;;;4.05;3.05;;;;;;;1.4;100;95240.16;;;;
2022/04/10 02:06:33;;;;;;;4.05;3.05;;;;;;;1.4;100;95240.16;;;;
2022/04/10 02:07:34;;;;;;;4.05;3.05;;;;;;;1.4;100;95240.16;;;;
2022/04/10 02:08:35;;;;;;;4.05;3.05;;;;;;;1.4;100;95240.16;;;;
2022/04/10 02:09:36;;;;;;;4.05;3.05;;;;;;;1.4;100;95240.16;;;;
2022/04/10 02:10:37;;;;;;;4.05;3.05;;;;;;;1.4;100;95240.16;;;;
2022/04/10 02:11:37;;;;;;;4.05;3.05;;;;;;;1.4;100;95240.16;;;;
2022/04/10 02:12:37;;;;;;;4.05;3.05;;;;;;;1.4;100;95240.16;;;;
2022/04/10 02:13:38;;;;;;;4.05;3.05;;;;;;;1.4;100;95240.16;;;;
2022/04/10 02:14:39;;;;;;;4.05;3.05;;;;;;;1.4;100;95240.16;;;;
2022/04/10 02:15:39;;;;;;;4.05;3.05;;;;;;;1.4;100;95240.16;;;;
2022/04/10 02:16:40;;;;;;;4.15;3.1;;;;;;;1.63;100;95244.48;;;;
2022/04/10 02:17:40;;;;;;;4.15;3.1;;;;;;;1.63;100;95244.48;;;;
2022/04/10 02:18:41;;;;;;;4.15;3.1;;;;;;;1.63;100;95244.48;;;;
2022/04/10 02:19:42;;;;;;;4.15;3.1;;;;;;;1.63;100;95244.48;;;;
2022/04/10 02:20:42;;;;;;;4.15;3.1;;;;;;;1.63;100;95244.48;;;;
2022/04/10 02:21:43;;;;;;;4.15;3.1;;;;;;;1.63;100;95244.48;;;;
2022/04/10 02:22:44;;;;;;;4.15;3.1;;;;;;;1.63;100;95244.48;;;;
2022/04/10 02:23:44;;;;;;;4.15;3.1;;;;;;;1.63;100;95244.48;;;;
2022/04/10 02:24:45;;;;;;;4.15;3.1;;;;;;;1.63;100;95244.48;;;;
2022/04/10 02:25:45;;;;;;;4.15;3.1;;;;;;;1.63;100;95244.48;;;;
2022/04/10 02:26:46;;;;;;;5;3.45;;;;;;;1.88;100;95248.11;;;;
2022/04/10 02:27:46;;;;;;;5;3.45;;;;;;;1.88;100;95248.11;;;;
2022/04/10 02:28:47;;;;;;;5;3.45;;;;;;;1.88;100;95248.11;;;;
2022/04/10 02:29:47;;;;;;;5;3.45;;;;;;;1.88;100;95248.11;;;;
2022/04/10 02:30:48;;;;;;;5;3.45;;;;;;;1.88;100;95248.11;;;;
2022/04/10 02:31:48;;;;;;;5;3.45;;;;;;;1.88;100;95248.11;;;;
2022/04/10 02:32:49;;;;;;;5;3.45;;;;;;;1.88;100;95248.11;;;;
2022/04/10 02:33:49;;;;;;;5;3.45;;;;;;;1.88;100;95248.11;;;;
2022/04/10 02:34:50;;;;;;;5;3.45;;;;;;;1.88;100;95248.11;;;;
2022/04/10 02:35:50;;;;;;;5;3.45;;;;;;;1.88;100;95248.11;;;;
2022/04/10 02:36:50;;;;;;;5;3.45;;;;;;;1.88;100;95248.11;;;;
2022/04/10 02:37:51;;;;;;;3.75;2.85;;;;;;;2.06;100;95258.29;;;;
2022/04/10 02:38:51;;;;;;;3.75;2.85;;;;;;;2.06;100;95258.29;;;;
2022/04/10 02:39:52;;;;;;;3.75;2.85;;;;;;;2.06;100;95258.29;;;;
2022/04/10 02:40:52;;;;;;;3.75;2.85;;;;;;;2.06;100;95258.29;;;;
2022/04/10 02:41:53;;;;;;;3.75;2.85;;;;;;;2.06;100;95258.29;;;;
2022/04/10 02:42:53;;;;;;;3.75;2.85;;;;;;;2.06;100;95258.29;;;;
2022/04/10 02:43:54;;;;;;;3.75;2.85;;;;;;;2.06;100;95258.29;;;;
2022/04/10 02:44:54;;;;;;;3.75;2.85;;;;;;;2.06;100;95258.29;;;;
2022/04/10 02:45:55;;;;;;;3.75;2.85;;;;;;;2.06;100;95258.29;;;;
2022/04/10 02:46:55;;;;;;;3.75;2.85;;;;;;;2.06;100;95258.29;;;;
2022/04/10 02:47:55;;;;;;;4.400001;2.6;;;;;;;2.1;100;95264.5;;;;
2022/04/10 02:48:56;;;;;;;4.400001;2.6;;;;;;;2.1;100;95264.5;;;;
2022/04/10 02:49:56;;;;;;;4.400001;2.6;;;;;;;2.1;100;95264.5;;;;
2022/04/10 02:50:57;;;;;;;4.400001;2.6;;;;;;;2.1;100;95264.5;;;;
2022/04/10 02:51:58;;;;;;;4.400001;2.6;;;;;;;2.1;100;95264.5;;;;
2022/04/10 02:52:58;;;;;;;4.400001;2.6;;;;;;;2.1;100;95264.5;;;;
2022/04/10 02:53:59;;;;;;;4.400001;2.6;;;;;;;2.1;100;95264.5;;;;
2022/04/10 02:54:59;;;;;;;4.400001;2.6;;;;;;;2.1;100;95264.5;;;;
2022/04/10 02:56:00;;;;;;;4.400001;2.6;;;;;;;2.1;100;95264.5;;;;
2022/04/10 02:57:00;;;;;;;4.400001;2.6;;;;;;;2.1;100;95264.5;;;;
2022/04/10 02:58:01;;;;;;;4.400001;2.6;;;;;;;2.1;100;95264.5;;;;
2022/04/10 02:59:01;;;;;;;4.3;2.5;;;;;;;2.15;100;95273.17;;;;
2022/04/10 03:00:02;;;;;;;4.3;2.5;;;;;;;2.15;100;95273.17;;;;
2022/04/10 03:01:04;;;;;;;4.3;2.5;;;;;;;2.15;100;95273.17;;;;
2022/04/10 03:02:04;;;;;;;4.3;2.5;;;;;;;2.15;100;95273.17;;;;
2022/04/10 03:03:05;;;;;;;4.3;2.5;;;;;;;2.15;100;95273.17;;;;
2022/04/10 03:04:06;;;;;;;4.3;2.5;;;;;;;2.15;100;95273.17;;;;
2022/04/10 03:05:06;;;;;;;4.3;2.5;;;;;;;2.15;100;95273.17;;;;
2022/04/10 03:06:08;;;;;;;4.3;2.5;;;;;;;2.15;100;95273.17;;;;
2022/04/10 03:07:08;;;;;;;4.3;2.5;;;;;;;2.15;100;95273.17;;;;
2022/04/10 03:08:09;;;;;;;4.3;2.5;;;;;;;2.15;100;95273.17;;;;
2022/04/10 03:09:09;;;;;;;5;2.75;;;;;;;2.2;100;95269.44;;;;
2022/04/10 03:10:10;;;;;;;5;2.75;;;;;;;2.2;100;95269.44;;;;
2022/04/10 03:11:10;;;;;;;5;2.75;;;;;;;2.2;100;95269.44;;;;
2022/04/10 03:12:11;;;;;;;5;2.75;;;;;;;2.2;100;95269.44;;;;
2022/04/10 03:13:11;;;;;;;5;2.75;;;;;;;2.2;100;95269.44;;;;
2022/04/10 03:14:12;;;;;;;5;2.75;;;;;;;2.2;100;95269.44;;;;
2022/04/10 03:15:12;;;;;;;5;2.75;;;;;;;2.2;100;95269.44;;;;
2022/04/10 03:16:13;;;;;;;5;2.75;;;;;;;2.2;100;95269.44;;;;
2022/04/10 03:17:13;;;;;;;5;2.75;;;;;;;2.2;100;95269.44;;;;
2022/04/10 03:18:14;;;;;;;5;2.75;;;;;;;2.2;100;95269.44;;;;
2022/04/10 03:19:14;;;;;;;5;2.75;;;;;;;2.2;100;95269.44;;;;
2022/04/10 03:20:15;;;;;;;5.55;3.25;;;;;;;2.25;100;95275.14;;;;
2022/04/10 03:21:15;;;;;;;5.55;3.25;;;;;;;2.25;100;95275.14;;;;
2022/04/10 03:22:16;;;;;;;5.55;3.25;;;;;;;2.25;100;95275.14;;;;
2022/04/10 03:23:17;;;;;;;5.55;3.25;;;;;;;2.25;100;95275.14;;;;
2022/04/10 03:24:18;;;;;;;5.55;3.25;;;;;;;2.25;100;95275.14;;;;
2022/04/10 03:25:18;;;;;;;5.55;3.25;;;;;;;2.25;100;95275.14;;;;
2022/04/10 03:26:19;;;;;;;5.55;3.25;;;;;;;2.25;100;95275.14;;;;
2022/04/10 03:27:19;;;;;;;5.55;3.25;;;;;;;2.25;100;95275.14;;;;
2022/04/10 03:28:20;;;;;;;5.55;3.25;;;;;;;2.25;100;95275.14;;;;
2022/04/10 03:29:20;;;;;;;5.55;3.25;;;;;;;2.25;100;95275.14;;;;
2022/04/10 03:30:21;;;;;;;5.55;3.25;;;;;;;2.25;100;95275.14;;;;
2022/04/10 03:31:22;;;;;;;4.15;3.25;;;;;;;2.31;100;95274.3;;;;
2022/04/10 03:32:23;;;;;;;4.15;3.25;;;;;;;2.31;100;95274.3;;;;
2022/04/10 03:33:24;;;;;;;4.15;3.25;;;;;;;2.31;100;95274.3;;;;
2022/04/10 03:34:24;;;;;;;4.15;3.25;;;;;;;2.31;100;95274.3;;;;
2022/04/10 03:35:25;;;;;;;4.15;3.25;;;;;;;2.31;100;95274.3;;;;
2022/04/10 03:36:25;;;;;;;4.15;3.25;;;;;;;2.31;100;95274.3;;;;
2022/04/10 03:37:26;;;;;;;4.15;3.25;;;;;;;2.31;100;95274.3;;;;
2022/04/10 03:38:27;;;;;;;4.15;3.25;;;;;;;2.31;100;95274.3;;;;
2022/04/10 03:39:27;;;;;;;4.15;3.25;;;;;;;2.31;100;95274.3;;;;
2022/04/10 03:40:28;;;;;;;4.15;3.25;;;;;;;2.31;100;95274.3;;;;
2022/04/10 03:41:28;;;;;;;5.85;3.9;;;;;;;2.37;100;95283.81;;;;
2022/04/10 03:42:29;;;;;;;5.85;3.9;;;;;;;2.37;100;95283.81;;;;
2022/04/10 03:43:37;;;;;;;5.85;3.9;;;;;;;2.37;100;95283.81;;;;
2022/04/10 03:44:37;;;;;;;5.85;3.9;;;;;;;2.37;100;95283.81;;;;
2022/04/10 03:45:38;;;;;;;5.85;3.9;;;;;;;2.37;100;95283.81;;;;
2022/04/10 03:46:39;;;;;;;5.85;3.9;;;;;;;2.37;100;95283.81;;;;
2022/04/10 03:47:39;;;;;;;5.85;3.9;;;;;;;2.37;100;95283.81;;;;
2022/04/10 03:48:40;;;;;;;5.85;3.9;;;;;;;2.37;100;95283.81;;;;
2022/04/10 03:49:41;;;;;;;5.85;3.9;;;;;;;2.37;100;95283.81;;;;
2022/04/10 03:50:42;;;;;;;5.85;3.9;;;;;;;2.37;100;95283.81;;;;
2022/04/10 03:51:42;;;;;;;5.85;3.9;;;;;;;2.37;100;95283.81;;;;
2022/04/10 03:52:43;;;;;;;6.199999;3.900001;;;;;;;2.57;100;95285.38;;;;
2022/04/10 03:53:43;;;;;;;6.199999;3.900001;;;;;;;2.57;100;95285.38;;;;
2022/04/10 03:54:44;;;;;;;6.199999;3.900001;;;;;;;2.57;100;95285.38;;;;
2022/04/10 03:55:44;;;;;;;6.199999;3.900001;;;;;;;2.57;100;95285.38;;;;
2022/04/10 03:56:45;;;;;;;6.199999;3.900001;;;;;;;2.57;100;95285.38;;;;
2022/04/10 03:57:46;;;;;;;6.199999;3.900001;;;;;;;2.57;100;95285.38;;;;
2022/04/10 03:58:46;;;;;;;6.199999;3.900001;;;;;;;2.57;100;95285.38;;;;
2022/04/10 03:59:47;;;;;;;6.199999;3.900001;;;;;;;2.57;100;95285.38;;;;
2022/04/10 04:00:47;;;;;;;6.199999;3.900001;;;;;;;2.57;100;95285.38;;;;
2022/04/10 04:01:48;;;;;;;6.199999;3.900001;;;;;;;2.57;100;95285.38;;;;
2022/04/10 04:02:48;;;;;;;5.850001;3.95;;;;;;;2.53;100;95295.59;;;;
2022/04/10 04:03:49;;;;;;;5.850001;3.95;;;;;;;2.53;100;95295.59;;;;
2022/04/10 04:04:50;;;;;;;5.850001;3.95;;;;;;;2.53;100;95295.59;;;;
2022/04/10 04:05:51;;;;;;;5.850001;3.95;;;;;;;2.53;100;95295.59;;;;
2022/04/10 04:06:51;;;;;;;5.850001;3.95;;;;;;;2.53;100;95295.59;;;;
2022/04/10 04:07:51;;;;;;;5.850001;3.95;;;;;;;2.53;100;95295.59;;;;
2022/04/10 04:08:52;;;;;;;5.850001;3.95;;;;;;;2.53;100;95295.59;;;;
2022/04/10 04:09:52;;;;;;;5.850001;3.95;;;;;;;2.53;100;95295.59;;;;
2022/04/10 04:10:53;;;;;;;5.850001;3.95;;;;;;;2.53;100;95295.59;;;;
2022/04/10 04:11:53;;;;;;;5.850001;3.95;;;;;;;2.53;100;95295.59;;;;
2022/04/10 04:12:54;;;;;;;5.850001;3.95;;;;;;;2.53;100;95295.59;;;;
2022/04/10 04:13:55;;;;;;;6.250001;3.6;;;;;;;2.41;100;95290.92;;;;
2022/04/10 04:14:55;;;;;;;6.250001;3.6;;;;;;;2.41;100;95290.92;;;;
2022/04/10 04:15:56;;;;;;;6.250001;3.6;;;;;;;2.41;100;95290.92;;;;
2022/04/10 04:16:56;;;;;;;6.250001;3.6;;;;;;;2.41;100;95290.92;;;;
2022/04/10 04:17:57;;;;;;;6.250001;3.6;;;;;;;2.41;100;95290.92;;;;
2022/04/10 04:18:57;;;;;;;6.250001;3.6;;;;;;;2.41;100;95290.92;;;;
2022/04/10 04:19:58;;;;;;;6.250001;3.6;;;;;;;2.41;100;95290.92;;;;
2022/04/10 04:20:58;;;;;;;6.250001;3.6;;;;;;;2.41;100;95290.92;;;;
2022/04/10 04:21:59;;;;;;;6.250001;3.6;;;;;;;2.41;100;95290.92;;;;
2022/04/10 04:22:59;;;;;;;6.250001;3.6;;;;;;;2.41;100;95290.92;;;;
2022/04/10 04:24:00;;;;;;;6.250001;3.6;;;;;;;2.41;100;95290.92;;;;
2022/04/10 04:25:00;;;;;;;4.7;3.75;;;;;;;2.21;100;95305.31;;;;
2022/04/10 04:26:01;;;;;;;4.7;3.75;;;;;;;2.21;100;95305.31;;;;
2022/04/10 04:27:02;;;;;;;4.7;3.75;;;;;;;2.21;100;95305.31;;;;
2022/04/10 04:28:03;;;;;;;4.7;3.75;;;;;;;2.21;100;95305.31;;;;
2022/04/10 04:29:04;;;;;;;4.7;3.75;;;;;;;2.21;100;95305.31;;;;
2022/04/10 04:30:05;;;;;;;4.7;3.75;;;;;;;2.21;100;95305.31;;;;
2022/04/10 04:31:06;;;;;;;4.7;3.75;;;;;;;2.21;100;95305.31;;;;
2022/04/10 04:32:07;;;;;;;4.7;3.75;;;;;;;2.21;100;95305.31;;;;
2022/04/10 04:33:08;;;;;;;4.7;3.75;;;;;;;2.21;100;95305.31;;;;
2022/04/10 04:34:11;;;;;;;4.7;3.75;;;;;;;2.21;100;95305.31;;;;
2022/04/10 04:35:12;;;;;;;4.8;3.55;;;;;;;1.98;100;95319.61;;;;
2022/04/10 04:36:13;;;;;;;4.8;3.55;;;;;;;1.98;100;95319.61;;;;
2022/04/10 04:37:13;;;;;;;4.8;3.55;;;;;;;1.98;100;95319.61;;;;
2022/04/10 04:38:14;;;;;;;4.8;3.55;;;;;;;1.98;100;95319.61;;;;
2022/04/10 04:39:14;;;;;;;4.8;3.55;;;;;;;1.98;100;95319.61;;;;
2022/04/10 04:40:15;;;;;;;4.8;3.55;;;;;;;1.98;100;95319.61;;;;
2022/04/10 04:41:16;;;;;;;4.8;3.55;;;;;;;1.98;100;95319.61;;;;
2022/04/10 04:42:16;;;;;;;4.8;3.55;;;;;;;1.98;100;95319.61;;;;
2022/04/10 04:43:17;;;;;;;4.8;3.55;;;;;;;1.98;100;95319.61;;;;
2022/04/10 04:44:17;;;;;;;4.8;3.55;;;;;;;1.98;100;95319.61;;;;
2022/04/10 04:45:18;;;;;;;4.8;3.55;;;;;;;1.98;100;95319.61;;;;
2022/04/10 04:46:19;;;;;;;4.9;3.9;;;;;;;2.03;100;95316.31;;;;
2022/04/10 04:47:20;;;;;;;4.9;3.9;;;;;;;2.03;100;95316.31;;;;
2022/04/10 04:48:20;;;;;;;4.9;3.9;;;;;;;2.03;100;95316.31;;;;
2022/04/10 04:49:21;;;;;;;4.9;3.9;;;;;;;2.03;100;95316.31;;;;
2022/04/10 04:50:21;;;;;;;4.9;3.9;;;;;;;2.03;100;95316.31;;;;
2022/04/10 04:51:22;;;;;;;4.9;3.9;;;;;;;2.03;100;95316.31;;;;
2022/04/10 04:52:22;;;;;;;4.9;3.9;;;;;;;2.03;100;95316.31;;;;
2022/04/10 04:53:23;;;;;;;4.9;3.9;;;;;;;2.03;100;95316.31;;;;
2022/04/10 04:54:23;;;;;;;4.9;3.9;;;;;;;2.03;100;95316.31;;;;
2022/04/10 04:55:24;;;;;;;4.9;3.9;;;;;;;2.03;100;95316.31;;;;
2022/04/10 04:56:24;;;;;;;5.599999;3.85;;;;;;;2.28;100;95327.95;;;;
2022/04/10 04:57:25;;;;;;;5.599999;3.85;;;;;;;2.28;100;95327.95;;;;
2022/04/10 04:58:25;;;;;;;5.599999;3.85;;;;;;;2.28;100;95327.95;;;;
2022/04/10 04:59:25;;;;;;;5.599999;3.85;;;;;;;2.28;100;95327.95;;;;
2022/04/10 05:00:26;;;;;;;5.599999;3.85;;;;;;;2.28;100;95327.95;;;;
2022/04/10 05:01:26;;;;;;;5.599999;3.85;;;;;;;2.28;100;95327.95;;;;
2022/04/10 05:02:27;;;;;;;5.599999;3.85;;;;;;;2.28;100;95327.95;;;;
2022/04/10 05:03:27;;;;;;;5.599999;3.85;;;;;;;2.28;100;95327.95;;;;
2022/04/10 05:04:28;;;;;;;5.599999;3.85;;;;;;;2.28;100;95327.95;;;;
2022/04/10 05:05:28;;;;;;;5.599999;3.85;;;;;;;2.28;100;95327.95;;;;
2022/04/10 05:06:29;;;;;;;5.599999;3.85;;;;;;;2.28;100;95327.95;;;;
2022/04/10 05:07:30;;;;;;;5.800001;3.95;;;;;;;2.35;100;95338.69;;;;
2022/04/10 05:08:30;;;;;;;5.800001;3.95;;;;;;;2.35;100;95338.69;;;;
2022/04/10 05:09:31;;;;;;;5.800001;3.95;;;;;;;2.35;100;95338.69;;;;
2022/04/10 05:10:32;;;;;;;5.800001;3.95;;;;;;;2.35;100;95338.69;;;;
2022/04/10 05:11:32;;;;;;;5.800001;3.95;;;;;;;2.35;100;95338.69;;;;
2022/04/10 05:12:34;;;;;;;5.800001;3.95;;;;;;;2.35;100;95338.69;;;;
2022/04/10 05:13:34;;;;;;;5.800001;3.95;;;;;;;2.35;100;95338.69;;;;
2022/04/10 05:14:35;;;;;;;5.800001;3.95;;;;;;;2.35;100;95338.69;;;;
2022/04/10 05:15:35;;;;;;;5.800001;3.95;;;;;;;2.35;100;95338.69;;;;
2022/04/10 05:16:36;;;;;;;5.800001;3.95;;;;;;;2.35;100;95338.69;;;;
2022/04/10 05:17:36;;;;;;;5.800001;3.95;;;;;;;2.35;100;95338.69;;;;
2022/04/10 05:18:37;;;;;;;7.250001;3.95;;;;;;;2.5;100;95361.75;;;;
2022/04/10 05:19:37;;;;;;;7.250001;3.95;;;;;;;2.5;100;95361.75;;;;
2022/04/10 05:20:38;;;;;;;7.250001;3.95;;;;;;;2.5;100;95361.75;;;;
2022/04/10 05:21:39;;;;;;;7.250001;3.95;;;;;;;2.5;100;95361.75;;;;
2022/04/10 05:22:40;;;;;;;7.250001;3.95;;;;;;;2.5;100;95361.75;;;;
2022/04/10 05:23:40;;;;;;;7.250001;3.95;;;;;;;2.5;100;95361.75;;;;
2022/04/10 05:24:41;;;;;;;7.250001;3.95;;;;;;;2.5;100;95361.75;;;;
2022/04/10 05:25:42;;;;;;;7.250001;3.95;;;;;;;2.5;100;95361.75;;;;
2022/04/10 05:26:42;;;;;;;7.250001;3.95;;;;;;;2.5;100;95361.75;;;;
2022/04/10 05:27:43;;;;;;;7.250001;3.95;;;;;;;2.5;100;95361.75;;;;
2022/04/10 05:28:43;;;;;;;5.699999;4.3;;;;;;;2.58;100;95375.8;;;;
2022/04/10 05:29:44;;;;;;;5.699999;4.3;;;;;;;2.58;100;95375.8;;;;
2022/04/10 05:30:44;;;;;;;5.699999;4.3;;;;;;;2.58;100;95375.8;;;;
2022/04/10 05:31:45;;;;;;;5.699999;4.3;;;;;;;2.58;100;95375.8;;;;
2022/04/10 05:32:45;;;;;;;5.699999;4.3;;;;;;;2.58;100;95375.8;;;;
2022/04/10 05:33:46;;;;;;;5.699999;4.3;;;;;;;2.58;100;95375.8;;;;
2022/04/10 05:34:46;;;;;;;5.699999;4.3;;;;;;;2.58;100;95375.8;;;;
2022/04/10 05:35:47;;;;;;;5.699999;4.3;;;;;;;2.58;100;95375.8;;;;
2022/04/10 05:36:47;;;;;;;5.699999;4.3;;;;;;;2.58;100;95375.8;;;;
2022/04/10 05:37:48;;;;;;;5.699999;4.3;;;;;;;2.58;100;95375.8;;;;
2022/04/10 05:38:48;;;;;;;5.699999;4.3;;;;;;;2.58;100;95375.8;;;;
2022/04/10 05:39:49;;;;;;;6.6;3.95;;;;;;;2.72;100;95390.53;;;;
2022/04/10 05:40:52;;;;;;;6.6;3.95;;;;;;;2.72;100;95390.53;;;;
2022/04/10 05:41:53;;;;;;;6.6;3.95;;;;;;;2.72;100;95390.53;;;;
2022/04/10 05:42:53;;;;;;;6.6;3.95;;;;;;;2.72;100;95390.53;;;;
2022/04/10 05:43:54;;;;;;;6.6;3.95;;;;;;;2.72;100;95390.53;;;;
2022/04/10 05:44:55;;;;;;;6.6;3.95;;;;;;;2.72;100;95390.53;;;;
2022/04/10 05:46:01;;;;;;;6.6;3.95;;;;;;;2.72;100;95390.53;;;;
2022/04/10 05:47:01;;;;;;;6.6;3.95;;;;;;;2.72;100;95390.53;;;;
2022/04/10 05:48:02;;;;;;;6.6;3.95;;;;;;;2.72;100;95390.53;;;;
2022/04/10 05:49:03;;;;;;;6.6;3.95;;;;;;;2.72;100;95390.53;;;;
2022/04/10 05:50:04;;;;;;;6.2;4.15;;;;;;;3.11;100;95398.21;;;;
2022/04/10 05:51:06;;;;;;;6.2;4.15;;;;;;;3.11;100;95398.21;;;;
2022/04/10 05:52:07;;;;;;;6.2;4.15;;;;;;;3.11;100;95398.21;;;;
2022/04/10 05:53:08;;;;;;;6.2;4.15;;;;;;;3.11;100;95398.21;;;;
2022/04/10 05:54:09;;;;;;;6.2;4.15;;;;;;;3.11;100;95398.21;;;;
2022/04/10 05:55:10;;;;;;;6.2;4.15;;;;;;;3.11;100;95398.21;;;;
2022/04/10 05:56:11;;;;;;;6.2;4.15;;;;;;;3.11;100;95398.21;;;;
2022/04/10 05:57:12;;;;;;;6.2;4.15;;;;;;;3.11;100;95398.21;;;;
2022/04/10 05:58:12;;;;;;;6.2;4.15;;;;;;;3.11;100;95398.21;;;;
2022/04/10 05:59:13;;;;;;;6.2;4.15;;;;;;;3.11;100;95398.21;;;;
2022/04/10 06:00:13;;;;;;;6.2;4.15;;;;;;;3.11;100;95398.21;;;;
2022/04/10 06:01:16;;;;;;;14.2;10.5;;;;;;;3.37;100;95410.08;;;;
2022/04/10 06:02:16;;;;;;;14.2;10.5;;;;;;;3.37;100;95410.08;;;;
2022/04/10 06:03:17;;;;;;;14.2;10.5;;;;;;;3.37;100;95410.08;;;;
2022/04/10 06:04:18;;;;;;;14.2;10.5;;;;;;;3.37;100;95410.08;;;;
2022/04/10 06:05:18;;;;;;;14.2;10.5;;;;;;;3.37;100;95410.08;;;;
2022/04/10 06:06:19;;;;;;;14.2;10.5;;;;;;;3.37;100;95410.08;;;;
2022/04/10 06:07:20;;;;;;;14.2;10.5;;;;;;;3.37;100;95410.08;;;;
2022/04/10 06:08:20;;;;;;;14.2;10.5;;;;;;;3.37;100;95410.08;;;;
2022/04/10 06:09:21;;;;;;;14.2;10.5;;;;;;;3.37;100;95410.08;;;;
2022/04/10 06:10:21;;;;;;;14.2;10.5;;;;;;;3.37;100;95410.08;;;;
2022/04/10 06:11:22;;;;;;;7.25;4.699999;;;;;;;3.61;100;95421.66;;;;
2022/04/10 06:12:23;;;;;;;7.25;4.699999;;;;;;;3.61;100;95421.66;;;;
2022/04/10 06:13:23;;;;;;;7.25;4.699999;;;;;;;3.61;100;95421.66;;;;
2022/04/10 06:14:24;;;;;;;7.25;4.699999;;;;;;;3.61;100;95421.66;;;;